Terminal Aerodrome Forecast
Issued by NWS

Home | Current Version | Previous Version | Graphics & Text | Print | Product List | Glossary On
Versions: 1 2 3 4 5 6 7 8 9 10 11 12 13 14 15 16 17 18
000
FTUS43 KOAX 240520
TAFCDR
TAF
KCDR 240520Z 2406/2506 31016KT P6SM VCSH OVC080
     FM240800 34015KT P6SM OVC015
     FM241900 36009KT P6SM VCSH BKN020
     FM250000 02010KT P6SM BKN020=

USA.gov is the U.S. government's official web portal to all federal, state and local government web resources and services.